Time;durP1;ratioP1;P1;durP2;ratioP2;P2;SDS_P1;SDS_P2;PMS_P1;PMS_P2;Temp;Humidity;BMP_temperature;BMP_pressure;BME280_temperature;BME280_humidity;BME280_pressure;Samples;Min_cycle;Max_cycle;Signal;HPM_P1;HPM_P2
2022/11/16 00:00:18;;;;;;;12.88;8.60;;;;;;;;;;5115551;28;20047;-85
2022/11/16 00:02:43;;;;;;;17.50;10.68;;;;;;;;;;5110915;27;20531;-86
2022/11/16 00:05:09;;;;;;;13.65;9.70;;;;;;;;;;5120414;28;20049;-84
2022/11/16 00:07:34;;;;;;;26.65;11.27;;;;;;;;;;5117488;28;20027;-82
2022/11/16 00:10:00;;;;;;;17.27;10.50;;;;;;;;;;5120432;27;20482;-87
2022/11/16 00:12:25;;;;;;;16.02;8.73;;;;;;;;;;5118766;27;20086;-86
2022/11/16 00:14:51;;;;;;;15.23;10.90;;;;;;;;;;5123685;27;20851;-84
2022/11/16 00:17:16;;;;;;;14.98;10.07;;;;;;;;;;5120876;27;20027;-86
2022/11/16 00:19:41;;;;;;;14.80;8.85;;;;;;;;;;5124262;27;20038;-83
2022/11/16 00:22:07;;;;;;;17.58;9.77;;;;;;;;;;5121219;27;20395;-85
2022/11/16 00:24:32;;;;;;;23.13;11.80;;;;;;;;;;5131612;27;20493;-86
2022/11/16 00:26:58;;;;;;;13.27;8.90;;;;;;;;;;5127698;27;20046;-83
2022/11/16 00:29:25;;;;;;;14.35;9.90;;;;;;;;;;5118854;27;20031;-83
2022/11/16 00:31:51;;;;;;;18.92;12.25;;;;;;;;;;5119439;27;20539;-84
2022/11/16 00:34:17;;;;;;;15.32;8.73;;;;;;;;;;5124735;27;20379;-86
2022/11/16 00:36:43;;;;;;;25.95;11.70;;;;;;;;;;5119540;27;20027;-83
2022/11/16 00:39:13;;;;;;;23.88;13.70;;;;;;;;;;5123629;27;20023;-84
2022/11/16 00:41:38;;;;;;;19.27;12.30;;;;;;;;;;5133763;27;20467;-83
2022/11/16 00:44:04;;;;;;;17.27;11.35;;;;;;;;;;5118614;27;20034;-87
2022/11/16 00:46:29;;;;;;;16.42;10.35;;;;;;;;;;5130184;27;20058;-84
2022/11/16 00:48:55;;;;;;;23.25;10.00;;;;;;;;;;5127014;27;20028;-82
2022/11/16 00:51:20;;;;;;;16.85;8.65;;;;;;;;;;5119227;27;20020;-83
2022/11/16 00:53:46;;;;;;;11.35;9.13;;;;;;;;;;5118482;27;20711;-83
2022/11/16 00:56:11;;;;;;;10.90;8.77;;;;;;;;;;5123006;27;20031;-85
2022/11/16 00:58:37;;;;;;;13.00;8.55;;;;;;;;;;5120051;27;20106;-86
2022/11/16 01:01:07;;;;;;;21.40;10.73;;;;;;;;;;5122281;27;20035;-86
2022/11/16 01:03:34;;;;;;;10.20;7.25;;;;;;;;;;5122679;27;20538;-83
2022/11/16 01:06:04;;;;;;;11.23;7.72;;;;;;;;;;5124435;27;20023;-85
2022/11/16 01:08:30;;;;;;;16.63;7.95;;;;;;;;;;5115974;27;20019;-85
2022/11/16 01:12:07;;;;;;;17.02;8.60;;;;;;;;;;5116644;27;20409;-83
2022/11/16 01:13:41;;;;;;;11.73;6.85;;;;;;;;;;5115737;27;20031;-84
2022/11/16 01:16:07;;;;;;;7.93;5.07;;;;;;;;;;5126430;27;20027;-82
2022/11/16 01:18:32;;;;;;;13.82;6.70;;;;;;;;;;5121229;27;20023;-86
2022/11/16 01:20:57;;;;;;;10.60;6.35;;;;;;;;;;5123216;27;20031;-84
2022/11/16 01:23:23;;;;;;;11.43;6.32;;;;;;;;;;5125437;27;20028;-86
2022/11/16 01:25:56;;;;;;;8.95;5.95;;;;;;;;;;5120793;27;20775;-83
2022/11/16 01:28:22;;;;;;;10.27;7.50;;;;;;;;;;5127820;27;20039;-85
2022/11/16 01:30:48;;;;;;;10.25;6.45;;;;;;;;;;5127332;27;20084;-85
2022/11/16 01:33:13;;;;;;;11.50;7.00;;;;;;;;;;5126301;27;20470;-84
2022/11/16 01:35:42;;;;;;;8.50;5.78;;;;;;;;;;5119576;27;20048;-84
2022/11/16 01:38:08;;;;;;;7.32;5.78;;;;;;;;;;5117588;27;20064;-83
2022/11/16 01:40:33;;;;;;;13.68;5.93;;;;;;;;;;5124301;27;20059;-86
2022/11/16 01:42:58;;;;;;;9.65;6.07;;;;;;;;;;5122278;27;20759;-85
2022/11/16 01:45:37;;;;;;;7.80;5.72;;;;;;;;;;5121195;27;20038;-86
2022/11/16 01:48:03;;;;;;;9.88;5.35;;;;;;;;;;5121098;27;20019;-86
2022/11/16 01:50:29;;;;;;;8.77;6.20;;;;;;;;;;5116831;27;20493;-85
2022/11/16 01:52:58;;;;;;;7.95;5.05;;;;;;;;;;5115261;27;20027;-85
2022/11/16 01:55:26;;;;;;;8.35;5.88;;;;;;;;;;5117681;27;20089;-84
2022/11/16 01:57:53;;;;;;;7.93;4.43;;;;;;;;;;5124400;27;20057;-84
2022/11/16 02:00:19;;;;;;;5.63;4.07;;;;;;;;;;5114872;27;20436;-85
2022/11/16 02:02:44;;;;;;;10.75;6.28;;;;;;;;;;5117603;27;20118;-84
2022/11/16 02:05:13;;;;;;;7.88;5.18;;;;;;;;;;5122352;27;20471;-85
2022/11/16 02:11:01;;;;;;;6.72;5.40;;;;;;;;;;5116304;27;20077;-85
2022/11/16 02:13:59;;;;;;;10.20;5.88;;;;;;;;;;5120061;27;20030;-84
2022/11/16 02:16:43;;;;;;;10.27;6.10;;;;;;;;;;5121055;27;20478;-85
2022/11/16 02:19:29;;;;;;;9.10;5.13;;;;;;;;;;5114895;27;20096;-84
2022/11/16 02:22:38;;;;;;;8.50;4.43;;;;;;;;;;5123382;27;20109;-84
2022/11/16 02:25:18;;;;;;;6.18;4.95;;;;;;;;;;5098347;27;21862;-85
2022/11/16 02:28:11;;;;;;;6.63;3.65;;;;;;;;;;5122636;27;20067;-84
2022/11/16 02:30:41;;;;;;;10.88;6.40;;;;;;;;;;5119344;27;20031;-83
2022/11/16 02:33:15;;;;;;;10.60;5.38;;;;;;;;;;5113783;27;20054;-85
2022/11/16 02:35:51;;;;;;;6.05;4.07;;;;;;;;;;5122092;27;20068;-85
2022/11/16 02:38:20;;;;;;;7.03;5.10;;;;;;;;;;5122089;27;20031;-84
2022/11/16 02:40:48;;;;;;;13.70;8.90;;;;;;;;;;5115799;27;20024;-84
2022/11/16 02:43:27;;;;;;;7.30;4.47;;;;;;;;;;5125185;27;20027;-86
2022/11/16 02:45:55;;;;;;;7.22;5.07;;;;;;;;;;5113415;27;20475;-83
2022/11/16 02:48:26;;;;;;;8.60;6.30;;;;;;;;;;5121795;27;20019;-83
2022/11/16 02:50:52;;;;;;;9.65;4.47;;;;;;;;;;5122933;27;20020;-82
2022/11/16 02:53:23;;;;;;;6.82;4.25;;;;;;;;;;5121333;27;20036;-84
2022/11/16 02:55:49;;;;;;;11.68;5.22;;;;;;;;;;5118339;27;20027;-84
2022/11/16 02:58:20;;;;;;;9.38;6.25;;;;;;;;;;5122103;27;20031;-85
2022/11/16 03:01:09;;;;;;;6.50;4.68;;;;;;;;;;5122126;27;20023;-83
2022/11/16 03:03:49;;;;;;;11.40;6.47;;;;;;;;;;5116990;27;20502;-85
2022/11/16 03:06:18;;;;;;;;;;;;;;;;;;5118561;27;20080;-85
2022/11/16 03:08:55;;;;;;;7.65;5.07;;;;;;;;;;5111416;27;19919;-84
2022/11/16 03:14:10;;;;;;;4.93;3.53;;;;;;;;;;5121900;27;20433;-84
2022/11/16 03:16:47;;;;;;;4.63;3.95;;;;;;;;;;5122159;27;20069;-84
2022/11/16 03:19:19;;;;;;;9.05;5.95;;;;;;;;;;5116522;27;20573;-84
2022/11/16 03:21:57;;;;;;;9.60;8.02;;;;;;;;;;5123733;27;20027;-86
2022/11/16 03:24:23;;;;;;;6.60;5.20;;;;;;;;;;5121348;27;20047;-83
2022/11/16 03:26:55;;;;;;;8.40;5.38;;;;;;;;;;5112408;28;20062;-83
2022/11/16 03:29:32;;;;;;;7.18;4.95;;;;;;;;;;5125903;27;20083;-84
2022/11/16 03:32:17;;;;;;;13.10;5.63;;;;;;;;;;5115833;28;20098;-84
2022/11/16 03:34:54;;;;;;;5.70;5.18;;;;;;;;;;5122611;28;20054;-84
2022/11/16 03:37:21;;;;;;;7.72;5.78;;;;;;;;;;5125295;28;20084;-86
2022/11/16 03:39:47;;;;;;;11.93;6.93;;;;;;;;;;5117123;28;20027;-85
2022/11/16 03:42:13;;;;;;;7.80;4.88;;;;;;;;;;5116797;28;20036;-83
2022/11/16 03:44:39;;;;;;;7.40;4.60;;;;;;;;;;5128242;27;20367;-85
2022/11/16 03:47:05;;;;;;;11.15;6.72;;;;;;;;;;5125386;27;20027;-83
2022/11/16 03:49:30;;;;;;;15.40;8.13;;;;;;;;;;5121230;27;20071;-87
2022/11/16 03:51:57;;;;;;;10.70;5.32;;;;;;;;;;5121753;27;20047;-83
2022/11/16 03:54:22;;;;;;;7.25;5.40;;;;;;;;;;5128126;27;20041;-84
2022/11/16 03:56:48;;;;;;;13.93;7.45;;;;;;;;;;5126222;27;20019;-82
2022/11/16 03:59:13;;;;;;;10.45;6.55;;;;;;;;;;5124890;27;20051;-84
2022/11/16 04:01:39;;;;;;;13.00;9.13;;;;;;;;;;5122768;27;20036;-85
2022/11/16 04:04:04;;;;;;;9.68;7.00;;;;;;;;;;5123635;27;20102;-86
2022/11/16 04:25:50;;;;;;;10.90;7.80;;;;;;;;;;5118749;27;20057;-85
2022/11/16 04:28:19;;;;;;;11.85;7.35;;;;;;;;;;5123316;27;20039;-83
2022/11/16 04:39:03;;;;;;;15.70;6.65;;;;;;;;;;5125124;27;20072;-85
2022/11/16 04:44:15;;;;;;;9.48;5.45;;;;;;;;;;5119782;27;20500;-87
2022/11/16 04:49:24;;;;;;;12.10;7.78;;;;;;;;;;5122752;27;20084;-84
2022/11/16 04:51:49;;;;;;;13.38;7.07;;;;;;;;;;5118724;27;20023;-84
2022/11/16 04:54:15;;;;;;;18.85;8.43;;;;;;;;;;5116347;27;20031;-86
2022/11/16 04:56:40;;;;;;;16.52;7.43;;;;;;;;;;5115904;27;20023;-86
2022/11/16 04:59:06;;;;;;;11.25;7.07;;;;;;;;;;5116310;27;20363;-84
2022/11/16 05:04:29;;;;;;;14.93;8.82;;;;;;;;;;5102429;27;20031;-82
2022/11/16 05:06:54;;;;;;;20.30;8.05;;;;;;;;;;5123090;27;20046;-82
2022/11/16 05:09:20;;;;;;;12.90;7.38;;;;;;;;;;5121283;27;20046;-82
2022/11/16 05:11:45;;;;;;;14.23;8.18;;;;;;;;;;5122666;27;20022;-81
2022/11/16 05:14:10;;;;;;;17.85;11.00;;;;;;;;;;5119211;27;20101;-81
2022/11/16 05:16:36;;;;;;;24.13;13.60;;;;;;;;;;5115526;27;20036;-82
2022/11/16 05:21:46;;;;;;;21.20;11.48;;;;;;;;;;5125287;27;20149;-84
2022/11/16 05:24:33;;;;;;;13.82;10.98;;;;;;;;;;5118460;27;20099;-87
2022/11/16 05:27:03;;;;;;;16.75;10.35;;;;;;;;;;5125101;27;20118;-83
2022/11/16 05:29:29;;;;;;;16.55;10.63;;;;;;;;;;5128208;27;20502;-86
2022/11/16 05:31:55;;;;;;;24.52;13.32;;;;;;;;;;5114209;27;20027;-80
2022/11/16 05:34:20;;;;;;;16.75;11.38;;;;;;;;;;5117053;27;20046;-84
2022/11/16 05:36:46;;;;;;;14.02;9.98;;;;;;;;;;5121868;27;20037;-85
2022/11/16 05:39:11;;;;;;;13.50;8.85;;;;;;;;;;5123227;27;20015;-81
2022/11/16 05:41:37;;;;;;;14.50;10.98;;;;;;;;;;5123323;27;20038;-83
2022/11/16 05:44:02;;;;;;;19.20;9.90;;;;;;;;;;5124094;27;20080;-84
2022/11/16 05:46:28;;;;;;;22.25;10.10;;;;;;;;;;5115968;27;20464;-85
2022/11/16 05:48:53;;;;;;;23.35;10.05;;;;;;;;;;5118343;27;20061;-84
2022/11/16 05:51:19;;;;;;;16.75;9.70;;;;;;;;;;5115167;27;20076;-86
2022/11/16 05:53:44;;;;;;;18.52;10.35;;;;;;;;;;5126250;27;20062;-81
2022/11/16 05:56:13;;;;;;;17.15;7.25;;;;;;;;;;5117588;27;20390;-82
2022/11/16 05:58:38;;;;;;;22.83;10.13;;;;;;;;;;5118724;27;20051;-83
2022/11/16 06:01:04;;;;;;;15.00;8.77;;;;;;;;;;5126755;27;20444;-84
2022/11/16 06:03:30;;;;;;;19.73;11.93;;;;;;;;;;5120377;27;20024;-83
2022/11/16 06:05:57;;;;;;;19.05;9.10;;;;;;;;;;5122144;27;20489;-83
2022/11/16 06:08:23;;;;;;;20.15;11.65;;;;;;;;;;5117257;27;20085;-84
2022/11/16 06:10:48;;;;;;;20.35;12.98;;;;;;;;;;5125958;27;20019;-86
2022/11/16 06:13:14;;;;;;;20.85;15.52;;;;;;;;;;5121457;27;20028;-82
2022/11/16 06:15:40;;;;;;;24.17;14.75;;;;;;;;;;5120756;27;20066;-81
2022/11/16 06:18:06;;;;;;;27.02;16.80;;;;;;;;;;5122471;27;20027;-83
2022/11/16 06:20:32;;;;;;;17.30;11.77;;;;;;;;;;5117168;27;20106;-86
2022/11/16 06:22:57;;;;;;;20.95;14.60;;;;;;;;;;5120741;27;20153;-84
2022/11/16 06:25:23;;;;;;;18.85;14.13;;;;;;;;;;5116177;27;20094;-85
2022/11/16 06:27:48;;;;;;;22.40;14.65;;;;;;;;;;5125712;27;20451;-82
2022/11/16 06:30:14;;;;;;;30.48;16.85;;;;;;;;;;5122688;27;20046;-82
2022/11/16 06:32:40;;;;;;;19.80;13.57;;;;;;;;;;5116553;27;20121;-83
2022/11/16 06:35:06;;;;;;;21.95;13.77;;;;;;;;;;5119161;27;20027;-82
2022/11/16 06:37:31;;;;;;;16.85;13.18;;;;;;;;;;5122742;27;20035;-83
2022/11/16 06:39:57;;;;;;;29.13;15.57;;;;;;;;;;5124564;27;20042;-85
2022/11/16 06:42:22;;;;;;;23.15;13.40;;;;;;;;;;5116425;27;20420;-84
2022/11/16 06:44:48;;;;;;;22.17;13.98;;;;;;;;;;5116534;27;20470;-83
2022/11/16 06:47:13;;;;;;;41.20;14.73;;;;;;;;;;5120531;27;20034;-81
2022/11/16 06:49:39;;;;;;;24.92;13.77;;;;;;;;;;5117495;27;20032;-82
2022/11/16 06:52:04;;;;;;;28.13;15.63;;;;;;;;;;5119172;27;20031;-82
2022/11/16 06:54:30;;;;;;;23.35;12.23;;;;;;;;;;5119879;27;20049;-86
2022/11/16 06:56:57;;;;;;;16.27;9.68;;;;;;;;;;5115856;27;20066;-85
2022/11/16 06:59:27;;;;;;;23.13;11.35;;;;;;;;;;5112953;27;20477;-81
2022/11/16 07:02:26;;;;;;;;;;;;;;;;;;;;;
2022/11/16 07:04:57;;;;;;;26.63;14.43;;;;;;;;;;5119540;27;20065;-81
2022/11/16 07:07:46;;;;;;;19.27;11.00;;;;;;;;;;5119738;27;20176;-83
2022/11/16 07:10:14;;;;;;;27.27;13.80;;;;;;;;;;5113626;27;20042;-82
2022/11/16 07:12:45;;;;;;;23.20;11.23;;;;;;;;;;5112030;27;20031;-84
2022/11/16 07:15:21;;;;;;;;;;;;;;;;;;;;;
2022/11/16 07:17:50;;;;;;;21.65;8.55;;;;;;;;;;5119595;27;20035;-84
2022/11/16 07:20:16;;;;;;;19.80;10.20;;;;;;;;;;5124545;27;20185;-84
2022/11/16 07:22:44;;;;;;;21.23;10.25;;;;;;;;;;5111571;28;20105;-82
2022/11/16 07:25:33;;;;;;;21.52;9.70;;;;;;;;;;5117883;27;20102;-81
2022/11/16 07:28:03;;;;;;;19.80;10.95;;;;;;;;;;5119843;27;20057;-83
2022/11/16 07:30:32;;;;;;;39.08;15.70;;;;;;;;;;5110745;28;20446;-83
2022/11/16 07:33:08;;;;;;;18.77;11.45;;;;;;;;;;5119227;28;20031;-84
2022/11/16 07:35:40;;;;;;;20.73;10.23;;;;;;;;;;5115820;28;20019;-85
2022/11/16 07:38:18;;;;;;;16.27;10.07;;;;;;;;;;5127321;27;20060;-85
2022/11/16 07:40:55;;;;;;;16.02;10.27;;;;;;;;;;5105298;27;20107;-82
2022/11/16 07:43:21;;;;;;;20.45;11.10;;;;;;;;;;5116140;28;20451;-83
2022/11/16 07:46:13;;;;;;;26.63;11.60;;;;;;;;;;5121152;28;20031;-87
2022/11/16 07:48:56;;;;;;;15.82;9.60;;;;;;;;;;5117481;28;20072;-87
2022/11/16 07:51:22;;;;;;;18.55;11.95;;;;;;;;;;5115935;28;20039;-82
2022/11/16 07:54:10;;;;;;;23.42;12.80;;;;;;;;;;5108531;28;20031;-86
2022/11/16 07:56:48;;;;;;;33.05;16.42;;;;;;;;;;5109214;28;20035;-83
2022/11/16 07:59:19;;;;;;;38.92;21.63;;;;;;;;;;5118112;28;20106;-83
2022/11/16 08:01:48;;;;;;;21.83;12.75;;;;;;;;;;5115111;28;20023;-84
2022/11/16 08:04:37;;;;;;;15.60;10.20;;;;;;;;;;5109915;28;20080;-83
2022/11/16 08:07:05;;;;;;;17.90;11.97;;;;;;;;;;5118358;28;20073;-83
2022/11/16 08:09:31;;;;;;;22.27;10.05;;;;;;;;;;5117754;28;20416;-81
2022/11/16 08:11:59;;;;;;;18.75;8.68;;;;;;;;;;5118755;28;20115;-84
2022/11/16 08:14:30;;;;;;;14.90;8.15;;;;;;;;;;5121128;28;20032;-81
2022/11/16 08:16:55;;;;;;;19.20;10.73;;;;;;;;;;5113571;28;20023;-82
2022/11/16 08:19:26;;;;;;;19.48;7.00;;;;;;;;;;5120066;27;20030;-85
2022/11/16 08:21:51;;;;;;;14.88;7.20;;;;;;;;;;5114803;27;20042;-82
2022/11/16 08:24:17;;;;;;;19.98;10.10;;;;;;;;;;5114696;27;20462;-83
2022/11/16 08:26:42;;;;;;;16.70;8.32;;;;;;;;;;5119538;28;20099;-82
2022/11/16 08:29:08;;;;;;;18.50;9.15;;;;;;;;;;5116529;28;20032;-82
2022/11/16 08:31:33;;;;;;;13.45;7.32;;;;;;;;;;5108483;27;20027;-85
2022/11/16 08:33:59;;;;;;;16.23;8.10;;;;;;;;;;5121952;27;20426;-82
2022/11/16 08:36:25;;;;;;;13.25;8.65;;;;;;;;;;5119438;27;20073;-83
2022/11/16 08:39:00;;;;;;;12.45;7.00;;;;;;;;;;5115911;27;20435;-87
2022/11/16 08:44:52;;;;;;;17.20;7.72;;;;;;;;;;5110831;27;20035;-85
2022/11/16 08:47:17;;;;;;;12.30;5.65;;;;;;;;;;5118468;27;20023;-84
2022/11/16 08:49:43;;;;;;;13.95;5.90;;;;;;;;;;5120217;27;20034;-84
2022/11/16 08:52:08;;;;;;;17.58;7.30;;;;;;;;;;5118507;27;20031;-85
2022/11/16 08:54:34;;;;;;;8.30;5.50;;;;;;;;;;5125379;27;20016;-86
2022/11/16 08:56:59;;;;;;;14.55;7.65;;;;;;;;;;5117464;27;20072;-84
2022/11/16 08:59:24;;;;;;;11.95;7.35;;;;;;;;;;5123069;27;20019;-83
2022/11/16 09:01:50;;;;;;;11.95;6.68;;;;;;;;;;5120417;27;20105;-84
2022/11/16 09:04:17;;;;;;;9.63;6.55;;;;;;;;;;5120259;27;20059;-83
2022/11/16 09:06:43;;;;;;;18.75;7.63;;;;;;;;;;5121520;27;20474;-85
2022/11/16 09:09:10;;;;;;;12.88;5.85;;;;;;;;;;5123002;27;20034;-83
2022/11/16 09:11:36;;;;;;;18.25;7.82;;;;;;;;;;5119500;27;20024;-82
2022/11/16 09:14:02;;;;;;;10.45;6.47;;;;;;;;;;5124092;27;20038;-84
2022/11/16 09:16:27;;;;;;;15.80;7.18;;;;;;;;;;5124390;27;20050;-84
2022/11/16 09:18:54;;;;;;;12.15;7.07;;;;;;;;;;5117527;27;20420;-83
2022/11/16 09:21:25;;;;;;;9.55;6.40;;;;;;;;;;5118908;27;20502;-82
2022/11/16 09:23:51;;;;;;;14.07;7.50;;;;;;;;;;5126427;27;20058;-85
2022/11/16 09:26:20;;;;;;;14.88;7.70;;;;;;;;;;5121591;27;20023;-85
2022/11/16 09:28:46;;;;;;;11.15;6.88;;;;;;;;;;5121578;27;20058;-83
2022/11/16 09:31:12;;;;;;;18.40;8.70;;;;;;;;;;5118106;27;20034;-85
2022/11/16 09:33:37;;;;;;;15.10;8.30;;;;;;;;;;5122199;27;20028;-85
2022/11/16 09:36:05;;;;;;;11.20;6.85;;;;;;;;;;5118949;27;20384;-83
2022/11/16 09:38:32;;;;;;;14.82;8.73;;;;;;;;;;5123370;27;20022;-85
2022/11/16 09:40:58;;;;;;;14.77;8.88;;;;;;;;;;5119667;27;20455;-82
2022/11/16 09:43:52;;;;;;;15.80;6.97;;;;;;;;;;5120880;27;20087;-82
2022/11/16 09:46:20;;;;;;;10.05;6.68;;;;;;;;;;5120741;27;20027;-83
2022/11/16 09:48:50;;;;;;;13.00;7.80;;;;;;;;;;5118425;27;20066;-83
2022/11/16 09:51:19;;;;;;;13.10;7.73;;;;;;;;;;5118506;27;20023;-83
2022/11/16 09:54:06;;;;;;;15.32;8.57;;;;;;;;;;5120072;27;20264;-80
2022/11/16 09:56:36;;;;;;;10.38;5.88;;;;;;;;;;5117245;27;20405;-82
2022/11/16 09:59:25;;;;;;;12.65;6.63;;;;;;;;;;5124011;27;20016;-81
2022/11/16 10:02:00;;;;;;;14.38;5.95;;;;;;;;;;5118336;27;20058;-84
2022/11/16 10:04:40;;;;;;;12.52;8.00;;;;;;;;;;5118245;27;20040;-82
2022/11/16 10:07:13;;;;;;;11.00;7.47;;;;;;;;;;5129561;27;20495;-80
2022/11/16 10:09:39;;;;;;;14.00;7.63;;;;;;;;;;5117795;27;20130;-86
2022/11/16 10:12:22;;;;;;;12.93;8.18;;;;;;;;;;5116700;27;20543;-80
2022/11/16 10:15:06;;;;;;;15.13;8.23;;;;;;;;;;5120101;27;20092;-84
2022/11/16 10:17:46;;;;;;;14.63;8.75;;;;;;;;;;5117676;27;20035;-80
2022/11/16 10:20:39;;;;;;;13.05;6.72;;;;;;;;;;5114470;27;20028;-80
2022/11/16 10:23:48;;;;;;;11.30;7.05;;;;;;;;;;5118889;27;20024;-84
2022/11/16 10:26:29;;;;;;;11.68;6.80;;;;;;;;;;5088602;27;20054;-85
2022/11/16 10:29:07;;;;;;;15.85;8.32;;;;;;;;;;5124327;27;20127;-80
2022/11/16 10:31:50;;;;;;;11.25;6.43;;;;;;;;;;5122877;27;20528;-82
2022/11/16 10:34:22;;;;;;;13.60;7.07;;;;;;;;;;5120469;27;20057;-81
2022/11/16 10:36:55;;;;;;;13.35;7.50;;;;;;;;;;5110453;27;20374;-84
2022/11/16 10:39:21;;;;;;;10.35;6.45;;;;;;;;;;5115072;27;20106;-81
2022/11/16 10:41:50;;;;;;;12.35;5.57;;;;;;;;;;5114767;27;20459;-84
2022/11/16 10:44:37;;;;;;;8.93;5.97;;;;;;;;;;5118106;27;20051;-80
2022/11/16 10:47:16;;;;;;;15.23;6.72;;;;;;;;;;5123414;27;20027;-82
2022/11/16 10:49:58;;;;;;;10.88;6.45;;;;;;;;;;5122812;27;20502;-83
2022/11/16 10:52:24;;;;;;;11.57;5.60;;;;;;;;;;5117688;27;20081;-82
2022/11/16 10:54:50;;;;;;;8.27;5.28;;;;;;;;;;5121397;27;20026;-83
2022/11/16 10:57:16;;;;;;;12.10;7.35;;;;;;;;;;5120226;27;20047;-81
2022/11/16 10:59:46;;;;;;;10.52;6.30;;;;;;;;;;5122991;27;20462;-79
2022/11/16 11:02:33;;;;;;;;;;;;;;;;;;5123047;27;20398;-82
2022/11/16 11:05:20;;;;;;;11.07;6.82;;;;;;;;;;5116517;27;19930;-84
2022/11/16 11:07:49;;;;;;;11.38;6.88;;;;;;;;;;5117755;27;20075;-83
2022/11/16 11:10:34;;;;;;;14.10;6.63;;;;;;;;;;5123680;27;20035;-82
2022/11/16 11:13:21;;;;;;;10.25;6.22;;;;;;;;;;5118857;27;20031;-80
2022/11/16 11:15:50;;;;;;;11.85;7.07;;;;;;;;;;5117819;27;20102;-82
2022/11/16 11:18:24;;;;;;;8.65;6.32;;;;;;;;;;5116235;27;20051;-81
2022/11/16 11:21:19;;;;;;;15.13;6.97;;;;;;;;;;5117019;27;20046;-83
2022/11/16 11:23:51;;;;;;;10.80;6.75;;;;;;;;;;5118501;27;20031;-79
2022/11/16 11:26:36;;;;;;;9.88;6.38;;;;;;;;;;5109691;27;20030;-80
2022/11/16 11:29:21;;;;;;;10.35;6.22;;;;;;;;;;5118336;27;20539;-83
2022/11/16 11:31:50;;;;;;;12.70;6.13;;;;;;;;;;5120418;27;20027;-82
2022/11/16 11:34:20;;;;;;;12.80;6.53;;;;;;;;;;5122109;27;20142;-83
2022/11/16 11:36:54;;;;;;;11.95;6.65;;;;;;;;;;5122099;28;20032;-81
2022/11/16 11:39:19;;;;;;;12.25;7.65;;;;;;;;;;5118016;28;20015;-82
2022/11/16 11:41:58;;;;;;;11.43;6.60;;;;;;;;;;5122640;27;20035;-80
2022/11/16 11:44:48;;;;;;;12.48;7.07;;;;;;;;;;5114802;28;20023;-80
2022/11/16 11:47:13;;;;;;;;;;;;;;;;;;5123162;28;20031;-82
2022/11/16 11:49:48;;;;;;;11.35;5.88;;;;;;;;;;5116972;28;19915;-83
2022/11/16 11:52:21;;;;;;;9.98;5.20;;;;;;;;;;5111731;28;20031;-81
2022/11/16 11:54:49;;;;;;;10.02;5.65;;;;;;;;;;5113228;28;20027;-82
2022/11/16 11:57:22;;;;;;;14.93;7.47;;;;;;;;;;5118401;28;20034;-83
2022/11/16 11:59:49;;;;;;;11.73;6.07;;;;;;;;;;5119053;28;20023;-81
2022/11/16 12:02:56;;;;;;;13.65;7.28;;;;;;;;;;5110963;28;20027;-81
2022/11/16 12:05:28;;;;;;;9.00;6.22;;;;;;;;;;5115895;27;20027;-81
2022/11/16 12:08:27;;;;;;;8.80;5.53;;;;;;;;;;5121065;27;20027;-82
2022/11/16 12:11:37;;;;;;;11.32;6.88;;;;;;;;;;5121126;27;20092;-80
2022/11/16 12:14:09;;;;;;;12.52;6.00;;;;;;;;;;5073859;27;20035;-82
2022/11/16 12:16:52;;;;;;;13.02;7.05;;;;;;;;;;5118457;27;20449;-84
2022/11/16 12:20:04;;;;;;;12.30;6.45;;;;;;;;;;5123319;27;20028;-81
2022/11/16 12:22:39;;;;;;;10.63;6.60;;;;;;;;;;5127266;27;20031;-83
2022/11/16 12:25:40;;;;;;;15.45;8.48;;;;;;;;;;5123801;27;20419;-84
2022/11/16 12:28:34;;;;;;;11.70;7.50;;;;;;;;;;5090515;27;20065;-85
2022/11/16 12:31:22;;;;;;;12.93;6.97;;;;;;;;;;5123996;27;20027;-85
2022/11/16 12:33:56;;;;;;;13.27;7.43;;;;;;;;;;5085475;27;20041;-84
2022/11/16 12:36:39;;;;;;;11.23;6.75;;;;;;;;;;5121522;27;20113;-84
2022/11/16 12:39:19;;;;;;;10.13;6.35;;;;;;;;;;5122958;27;20027;-85
2022/11/16 12:42:31;;;;;;;14.77;6.72;;;;;;;;;;5124366;27;20118;-86
2022/11/16 12:45:18;;;;;;;13.25;6.25;;;;;;;;;;5124018;27;20028;-84
2022/11/16 12:48:32;;;;;;;11.48;6.78;;;;;;;;;;5121005;27;20055;-84
2022/11/16 12:51:12;;;;;;;11.43;7.18;;;;;;;;;;5118278;27;20035;-83
2022/11/16 12:54:08;;;;;;;13.30;7.22;;;;;;;;;;5123892;27;20051;-84
2022/11/16 12:56:52;;;;;;;11.30;6.53;;;;;;;;;;5126648;27;20374;-83
2022/11/16 13:03:21;;;;;;;11.00;6.63;;;;;;;;;;5080236;28;20040;-83
2022/11/16 13:06:15;;;;;;;10.02;6.40;;;;;;;;;;5072323;28;20330;-85
2022/11/16 13:09:00;;;;;;;11.10;6.43;;;;;;;;;;5124365;27;20027;-85
2022/11/16 13:11:34;;;;;;;9.52;5.85;;;;;;;;;;5120406;27;20039;-85
2022/11/16 13:14:04;;;;;;;12.52;6.22;;;;;;;;;;5117983;27;20927;-83
2022/11/16 13:16:30;;;;;;;10.90;6.18;;;;;;;;;;5117890;27;20023;-82
2022/11/16 13:18:57;;;;;;;10.48;6.40;;;;;;;;;;5119065;27;20031;-84
2022/11/16 13:21:28;;;;;;;14.48;7.68;;;;;;;;;;5119202;27;20489;-85
2022/11/16 13:24:32;;;;;;;13.82;7.35;;;;;;;;;;5120274;27;20458;-84
2022/11/16 13:27:27;;;;;;;10.18;5.43;;;;;;;;;;5118433;27;20052;-84
2022/11/16 13:30:02;;;;;;;12.52;7.10;;;;;;;;;;5119999;27;20149;-85
2022/11/16 13:32:30;;;;;;;14.38;7.05;;;;;;;;;;5124368;27;20031;-84
2022/11/16 13:34:57;;;;;;;16.60;6.47;;;;;;;;;;5115641;27;20480;-84
2022/11/16 13:37:35;;;;;;;8.52;5.55;;;;;;;;;;5113781;27;20030;-84
2022/11/16 13:40:00;;;;;;;15.07;7.50;;;;;;;;;;5118330;27;20031;-84
2022/11/16 13:42:28;;;;;;;11.02;6.10;;;;;;;;;;5116248;27;20106;-85
2022/11/16 13:45:20;;;;;;;9.98;6.28;;;;;;;;;;5121967;27;20125;-83
2022/11/16 13:47:55;;;;;;;9.48;5.45;;;;;;;;;;5116680;27;20023;-84
2022/11/16 13:50:31;;;;;;;9.48;6.60;;;;;;;;;;5124565;27;20047;-85
2022/11/16 13:53:20;;;;;;;9.57;6.78;;;;;;;;;;5127332;27;20039;-85
2022/11/16 13:55:57;;;;;;;13.23;6.32;;;;;;;;;;5117690;27;20020;-83
2022/11/16 13:58:24;;;;;;;10.10;6.68;;;;;;;;;;5124774;27;20442;-82
2022/11/16 14:01:03;;;;;;;14.95;8.13;;;;;;;;;;5124754;27;20035;-87
2022/11/16 14:03:39;;;;;;;11.88;7.25;;;;;;;;;;5120132;27;20129;-85
2022/11/16 14:06:28;;;;;;;10.40;5.53;;;;;;;;;;5117529;27;20024;-84
2022/11/16 14:08:54;;;;;;;11.80;5.93;;;;;;;;;;5080731;27;20225;-85
2022/11/16 14:11:37;;;;;;;9.13;4.72;;;;;;;;;;5125710;27;20023;-85
2022/11/16 14:14:11;;;;;;;13.52;6.60;;;;;;;;;;5120832;27;20088;-84
2022/11/16 14:16:48;;;;;;;13.65;6.53;;;;;;;;;;5124057;27;20055;-86
2022/11/16 14:19:43;;;;;;;9.20;5.35;;;;;;;;;;5117687;27;20107;-84
2022/11/16 14:22:47;;;;;;;8.38;5.07;;;;;;;;;;5118712;27;20035;-84
2022/11/16 14:25:32;;;;;;;11.27;5.85;;;;;;;;;;5082752;27;20027;-86
2022/11/16 14:28:26;;;;;;;7.53;4.72;;;;;;;;;;5122272;27;20390;-84
2022/11/16 14:31:21;;;;;;;9.85;5.28;;;;;;;;;;5111774;27;20035;-85
2022/11/16 14:33:55;;;;;;;9.50;4.80;;;;;;;;;;5125211;27;20024;-86
2022/11/16 14:36:53;;;;;;;7.55;5.38;;;;;;;;;;5125824;27;20416;-84
2022/11/16 14:39:36;;;;;;;7.25;3.72;;;;;;;;;;5086828;27;20350;-84
2022/11/16 14:42:05;;;;;;;6.78;4.53;;;;;;;;;;5118873;27;20023;-84
2022/11/16 14:44:36;;;;;;;7.93;4.50;;;;;;;;;;5116368;27;20880;-84
2022/11/16 14:47:02;;;;;;;9.48;4.75;;;;;;;;;;5119854;27;20055;-84
2022/11/16 14:49:31;;;;;;;7.13;4.90;;;;;;;;;;5126728;27;20080;-86
2022/11/16 14:52:00;;;;;;;10.98;4.57;;;;;;;;;;5121443;27;20047;-84
2022/11/16 14:54:48;;;;;;;13.57;5.95;;;;;;;;;;5123188;27;20033;-85
2022/11/16 14:57:22;;;;;;;7.53;4.00;;;;;;;;;;5116965;27;20508;-86
2022/11/16 14:59:48;;;;;;;7.63;4.93;;;;;;;;;;5119611;27;20079;-85
2022/11/16 15:02:21;;;;;;;11.90;5.75;;;;;;;;;;5120889;27;20100;-84
2022/11/16 15:04:50;;;;;;;9.55;6.15;;;;;;;;;;5124173;27;20088;-85
2022/11/16 15:07:17;;;;;;;8.57;4.90;;;;;;;;;;5119961;27;20028;-84
2022/11/16 15:09:49;;;;;;;9.23;4.88;;;;;;;;;;5118681;27;20511;-87
2022/11/16 15:12:40;;;;;;;13.18;6.72;;;;;;;;;;5118365;27;20024;-85
2022/11/16 15:15:11;;;;;;;7.93;4.75;;;;;;;;;;5116742;27;20053;-86
2022/11/16 15:17:43;;;;;;;9.35;5.45;;;;;;;;;;5120416;27;20829;-83
2022/11/16 15:20:23;;;;;;;14.35;6.95;;;;;;;;;;5122885;27;20031;-83
2022/11/16 15:22:54;;;;;;;13.52;5.95;;;;;;;;;;5121037;27;20022;-83
2022/11/16 15:25:22;;;;;;;8.43;5.20;;;;;;;;;;5114717;27;20378;-81
2022/11/16 15:27:48;;;;;;;9.73;5.35;;;;;;;;;;5110486;27;20052;-83
2022/11/16 15:30:18;;;;;;;11.88;6.55;;;;;;;;;;5112999;28;20028;-79
2022/11/16 15:32:45;;;;;;;9.20;5.70;;;;;;;;;;5111502;27;20467;-80
2022/11/16 15:35:26;;;;;;;8.45;5.40;;;;;;;;;;5118512;27;20115;-81
2022/11/16 15:38:21;;;;;;;8.13;5.45;;;;;;;;;;5115753;28;20064;-80
2022/11/16 15:41:09;;;;;;;11.90;6.40;;;;;;;;;;5109300;28;20483;-83
2022/11/16 15:43:51;;;;;;;7.72;4.70;;;;;;;;;;5107514;28;20035;-83
2022/11/16 15:46:17;;;;;;;9.75;6.10;;;;;;;;;;5117083;28;20118;-83
2022/11/16 15:48:44;;;;;;;12.43;6.20;;;;;;;;;;5113596;28;20471;-82
2022/11/16 15:51:15;;;;;;;12.57;7.30;;;;;;;;;;5113741;28;20038;-80
2022/11/16 15:53:53;;;;;;;13.63;6.95;;;;;;;;;;5116056;28;20039;-80
2022/11/16 15:56:24;;;;;;;14.40;8.88;;;;;;;;;;5107417;28;20126;-80
2022/11/16 15:58:52;;;;;;;14.30;7.72;;;;;;;;;;5115528;28;20023;-80